TAF and METAR

METAR for Moulay Ali Cherif Airport

GMFK 061200Z 08006KT 020V130 7000 FEW030 39/M01 Q1017 NOSIG
Report created 6. aug 14:00
wind 6 knots from E (080°) Wind direction varies from NNE to SE visibility 7000 meters some clouds (~25% cover) at 3000 feet Temperature 39° with dewpoint at -1° (Humidity 8.15%) Pressure 1017 hPa no significant weather change expected the next couple of hours

TAF for Moulay Ali Cherif Airport

TAF GMFK 061100Z 0612/0718 18012KT 8000 FEW030 FEW033TCU TEMPO 0617/0623 VRB18G32KT 6000 -TSRA BKN030 FEW033CB
Report created 6. aug 13:00

between 6. aug 14:00 - 7. aug 20:00

wind 12 knots from S (180°) visibility 8000 meters some clouds (~25% cover) at 3000 feet some clouds (~25% cover) at 3300 feet of type towering cumulus

temporarily between 6. aug 19:00 - 7. aug 01:00

wind 18 knots from various directions with gusts up to 32 knots visibility 6000 meters light thunderstorm and rain broken clouds (~75% cover) at 3000 feet some clouds (~25% cover) at 3300 feet of type cumulonimbus